createdAt,value
2022-09-21T00:01:18.665Z,0.90
2022-09-21T00:03:46.555Z,0.80
2022-09-21T00:06:16.565Z,1.00
2022-09-21T00:08:43.282Z,0.88
2022-09-21T00:11:15.356Z,0.90
2022-09-21T00:13:43.892Z,0.70
2022-09-21T00:16:10.379Z,0.50
2022-09-21T00:18:37.481Z,1.20
2022-09-21T00:21:09.975Z,0.90
2022-09-21T00:23:37.690Z,0.87
2022-09-21T00:26:13.657Z,0.70
2022-09-21T00:28:40.802Z,1.20
2022-09-21T00:31:12.403Z,0.80
2022-09-21T00:33:40.937Z,0.82
2022-09-21T00:36:10.359Z,0.90
2022-09-21T00:38:37.545Z,0.73
2022-09-21T00:41:05.805Z,0.60
2022-09-21T00:43:34.928Z,0.98
2022-09-21T00:46:05.042Z,0.80
2022-09-21T00:48:33.703Z,1.17
2022-09-21T00:51:06.245Z,0.90
2022-09-21T00:53:32.862Z,0.90
2022-09-21T00:56:02.612Z,0.60
2022-09-21T00:58:33.846Z,0.45
2022-09-21T01:01:01.308Z,0.50
2022-09-21T01:03:31.334Z,0.45
2022-09-21T01:05:57.899Z,0.43
2022-09-21T01:08:26.393Z,1.33
2022-09-21T01:10:52.771Z,0.65
2022-09-21T01:13:45.382Z,1.07
2022-09-21T01:16:23.103Z,0.25
2022-09-21T01:19:01.118Z,0.50
2022-09-21T01:22:05.737Z,0.35
2022-09-21T01:24:48.550Z,0.50
2022-09-21T01:27:17.977Z,0.60
2022-09-21T01:29:56.820Z,0.55
2022-09-21T01:32:32.687Z,0.50
2022-09-21T01:35:08.923Z,0.60
2022-09-21T01:37:54.272Z,0.80
2022-09-21T01:40:31.963Z,1.63
2022-09-21T01:43:03.479Z,1.30
2022-09-21T01:45:38.116Z,1.10
2022-09-21T01:48:05.472Z,1.15
2022-09-21T01:50:36.526Z,0.40
2022-09-21T01:53:08.344Z,0.47
2022-09-21T01:55:44.066Z,0.55
2022-09-21T01:58:24.262Z,0.73
2022-09-21T02:00:54.723Z,0.75
2022-09-21T02:03:29.116Z,0.60
2022-09-21T02:05:57.257Z,0.90
2022-09-21T02:08:26.907Z,1.15
2022-09-21T02:10:54.840Z,0.50
2022-09-21T02:13:27.558Z,0.40
2022-09-21T02:16:03.019Z,0.60
2022-09-21T02:18:40.762Z,0.60
2022-09-21T02:21:33.211Z,0.50
2022-09-21T02:24:20.120Z,0.40
2022-09-21T02:26:53.539Z,0.28
2022-09-21T02:29:26.986Z,0.52
2022-09-21T02:32:00.910Z,0.30
2022-09-21T02:34:51.658Z,0.40
2022-09-21T02:37:31.188Z,0.45
2022-09-21T02:40:03.295Z,0.40
2022-09-21T02:42:41.722Z,0.77
2022-09-21T02:45:17.816Z,0.67
2022-09-21T02:47:59.357Z,0.50
2022-09-21T02:50:40.143Z,0.60
2022-09-21T02:53:15.391Z,0.70
2022-09-21T02:55:44.799Z,0.80
2022-09-21T02:58:14.549Z,0.70
2022-09-21T03:00:41.268Z,0.70
2022-09-21T03:03:18.428Z,0.68
2022-09-21T03:05:48.559Z,0.50
2022-09-21T03:08:16.222Z,0.60
2022-09-21T03:10:42.710Z,0.60
2022-09-21T03:13:09.686Z,0.57
2022-09-21T03:15:40.317Z,0.93
2022-09-21T03:18:11.645Z,0.50
2022-09-21T03:20:39.958Z,0.60
2022-09-21T03:23:06.925Z,0.60
2022-09-21T03:25:33.554Z,0.40
2022-09-21T03:28:01.333Z,0.30
2022-09-21T03:30:29.310Z,0.50
2022-09-21T03:32:55.966Z,0.32
2022-09-21T03:35:23.797Z,0.30
2022-09-21T03:37:50.405Z,0.50
2022-09-21T03:40:17.468Z,0.20
2022-09-21T03:42:44.265Z,0.32
2022-09-21T03:45:11.807Z,0.60
2022-09-21T03:47:39.209Z,0.50
2022-09-21T03:50:10.035Z,0.50
2022-09-21T03:52:38.401Z,0.52
2022-09-21T03:55:07.327Z,0.50
2022-09-21T03:57:35.029Z,0.50
2022-09-21T04:00:04.368Z,0.60
2022-09-21T04:02:31.966Z,0.22
2022-09-21T04:04:58.739Z,0.35
2022-09-21T04:07:25.071Z,0.40
2022-09-21T04:09:51.560Z,0.47
2022-09-21T04:12:22.047Z,0.50
2022-09-21T04:14:49.689Z,0.30
2022-09-21T04:17:16.189Z,0.63
2022-09-21T04:19:43.002Z,0.40
2022-09-21T04:22:09.532Z,0.45
2022-09-21T04:24:36.076Z,0.50
2022-09-21T04:27:02.533Z,0.40
2022-09-21T04:29:29.260Z,0.38
2022-09-21T04:31:55.647Z,0.40
2022-09-21T04:34:21.982Z,0.30
2022-09-21T04:36:48.351Z,0.33
2022-09-21T04:39:14.862Z,0.40
2022-09-21T04:41:42.231Z,0.40
2022-09-21T04:44:08.591Z,0.30
2022-09-21T04:46:35.072Z,0.30
2022-09-21T04:49:01.474Z,0.30
2022-09-21T04:51:28.041Z,0.30
2022-09-21T04:53:54.443Z,0.25
2022-09-21T04:56:21.221Z,0.20
2022-09-21T04:58:47.616Z,0.20
2022-09-21T05:01:14.098Z,0.20
2022-09-21T05:03:40.666Z,0.20
2022-09-21T05:06:07.808Z,0.40
2022-09-21T05:08:52.906Z,0.30
2022-09-21T05:11:19.552Z,0.20
2022-09-21T05:13:46.613Z,0.20
2022-09-21T05:16:14.326Z,0.20
2022-09-21T05:18:40.761Z,0.17
2022-09-21T05:21:07.435Z,0.28
2022-09-21T05:23:33.839Z,0.20
2022-09-21T05:26:00.184Z,0.20
2022-09-21T05:28:27.438Z,0.75
2022-09-21T05:31:14.101Z,0.70
2022-09-21T05:33:44.490Z,0.50
2022-09-21T05:36:29.511Z,0.43
2022-09-21T05:38:56.692Z,0.40
2022-09-21T05:41:23.684Z,0.35
2022-09-21T05:43:50.346Z,0.22
2022-09-21T05:46:25.103Z,0.20
2022-09-21T05:48:58.901Z,0.35
2022-09-21T05:51:50.266Z,0.20
2022-09-21T05:54:45.743Z,0.30
2022-09-21T05:57:21.714Z,0.25
2022-09-21T06:00:13.943Z,0.50
2022-09-21T06:03:20.069Z,0.45
2022-09-21T06:05:46.757Z,0.40
2022-09-21T06:08:13.207Z,0.65
2022-09-21T06:10:39.573Z,0.70
2022-09-21T06:13:05.926Z,0.70
2022-09-21T06:15:38.203Z,0.80
2022-09-21T06:18:05.788Z,1.00
2022-09-21T06:20:32.151Z,1.10
2022-09-21T06:23:02.226Z,1.05
2022-09-21T06:25:28.924Z,0.60
2022-09-21T06:27:55.284Z,0.80
2022-09-21T06:30:21.695Z,0.60
2022-09-21T06:32:48.029Z,0.90
2022-09-21T06:35:14.425Z,0.52
2022-09-21T06:37:41.922Z,0.60
2022-09-21T06:40:14.263Z,0.95
2022-09-21T06:42:40.666Z,0.90
2022-09-21T06:45:07.694Z,0.98
2022-09-21T06:47:34.166Z,1.42
2022-09-21T06:50:00.523Z,1.65
2022-09-21T06:52:26.956Z,1.50
2022-09-21T06:54:53.435Z,2.07
2022-09-21T06:57:19.766Z,2.60
2022-09-21T06:59:46.764Z,1.67
2022-09-21T07:02:13.258Z,2.50
2022-09-21T07:04:39.786Z,2.45
2022-09-21T07:07:06.222Z,2.40
2022-09-21T07:12:21.967Z,2.10
2022-09-21T07:14:48.356Z,2.25
2022-09-21T07:17:16.027Z,1.73
2022-09-21T07:19:42.536Z,1.63
2022-09-21T07:22:09.082Z,2.25
2022-09-21T07:24:35.444Z,1.67
2022-09-21T07:27:01.775Z,1.50
2022-09-21T07:29:28.203Z,1.30
2022-09-21T07:31:54.633Z,1.40
2022-09-21T07:34:21.102Z,1.48
2022-09-21T07:36:47.440Z,1.42
2022-09-21T07:39:13.821Z,2.08
2022-09-21T07:41:40.247Z,1.48
2022-09-21T07:44:06.723Z,1.57
2022-09-21T07:46:33.302Z,0.90
2022-09-21T07:48:59.743Z,1.67
2022-09-21T07:51:26.079Z,1.35
2022-09-21T07:53:59.455Z,1.38
2022-09-21T07:56:26.139Z,0.80
2022-09-21T07:59:07.757Z,1.25
2022-09-21T08:01:34.219Z,1.00
2022-09-21T08:04:00.858Z,0.93
2022-09-21T08:06:30.329Z,1.10
2022-09-21T08:08:58.072Z,1.17
2022-09-21T08:11:26.092Z,0.80
2022-09-21T08:13:54.644Z,0.70
2022-09-21T08:16:21.232Z,1.00
2022-09-21T08:18:48.119Z,0.77
2022-09-21T08:21:15.260Z,0.77
2022-09-21T08:23:42.584Z,0.60
2022-09-21T08:26:12.453Z,0.77
2022-09-21T08:28:40.287Z,0.70
2022-09-21T08:31:10.840Z,0.82
2022-09-21T08:33:37.260Z,0.63
2022-09-21T08:36:04.316Z,1.02
2022-09-21T08:38:35.711Z,0.82
2022-09-21T08:41:14.177Z,0.80
2022-09-21T08:43:43.864Z,2.50
2022-09-21T08:46:16.841Z,0.77
2022-09-21T08:48:54.781Z,1.10
2022-09-21T08:51:26.827Z,0.88
2022-09-21T08:53:58.088Z,1.15
2022-09-21T08:56:41.887Z,0.70
2022-09-21T08:59:15.747Z,0.50
2022-09-21T09:02:03.338Z,0.55
2022-09-21T09:04:43.132Z,0.50
2022-09-21T09:07:48.956Z,0.80
2022-09-21T09:10:27.250Z,0.55
2022-09-21T09:13:06.386Z,0.73
2022-09-21T09:15:51.609Z,0.65
2022-09-21T09:18:35.100Z,0.75
2022-09-21T09:21:07.224Z,0.50
2022-09-21T09:23:39.614Z,0.40
2022-09-21T09:26:46.553Z,0.53
2022-09-21T09:29:29.668Z,0.70
2022-09-21T09:32:00.227Z,0.30
2022-09-21T09:34:34.178Z,0.40
2022-09-21T09:37:15.936Z,0.30
2022-09-21T09:39:46.109Z,0.30
2022-09-21T09:42:42.327Z,0.40
2022-09-21T09:45:24.620Z,0.73
2022-09-21T09:48:08.104Z,0.43
2022-09-21T09:50:37.422Z,0.40
2022-09-21T09:53:18.757Z,0.63
2022-09-21T09:55:48.894Z,0.50
2022-09-21T09:58:33.385Z,0.40
2022-09-21T10:01:00.232Z,0.50
2022-09-21T10:03:27.760Z,0.57
2022-09-21T10:05:54.576Z,0.50
2022-09-21T10:08:42.974Z,0.30
2022-09-21T10:11:11.711Z,0.40
2022-09-21T10:13:41.569Z,0.22
2022-09-21T10:16:19.178Z,0.20
2022-09-21T10:18:47.781Z,0.50
2022-09-21T10:21:25.511Z,0.40
2022-09-21T10:23:58.283Z,0.30
2022-09-21T10:26:32.608Z,0.63
2022-09-21T10:29:00.044Z,0.40
2022-09-21T10:31:29.817Z,0.40
2022-09-21T10:34:02.492Z,0.20
2022-09-21T10:36:37.597Z,0.30
2022-09-21T10:39:20.752Z,0.50
2022-09-21T10:41:51.114Z,0.45
2022-09-21T10:44:20.218Z,1.03
2022-09-21T10:46:49.076Z,0.30
2022-09-21T10:49:22.429Z,0.20
2022-09-21T10:51:53.261Z,0.30
2022-09-21T10:54:24.695Z,0.30
2022-09-21T10:56:54.005Z,0.47
2022-09-21T10:59:31.438Z,0.20
2022-09-21T11:01:59.483Z,0.30
2022-09-21T11:04:53.837Z,0.52
2022-09-21T11:07:34.751Z,0.40
2022-09-21T11:10:12.328Z,0.30
2022-09-21T11:13:17.791Z,0.50
2022-09-21T11:16:09.906Z,0.40
2022-09-21T11:18:55.073Z,0.40
2022-09-21T11:21:30.152Z,0.40
2022-09-21T11:24:24.598Z,0.30
2022-09-21T11:26:59.249Z,0.55
2022-09-21T11:30:04.045Z,0.22
2022-09-21T11:32:49.269Z,0.20
2022-09-21T11:35:30.779Z,0.80
2022-09-21T11:37:57.311Z,0.30
2022-09-21T11:40:35.940Z,0.20
2022-09-21T11:43:19.186Z,0.40
2022-09-21T11:46:12.129Z,0.20
2022-09-21T11:48:59.333Z,0.20
2022-09-21T11:51:44.994Z,0.30
2022-09-21T11:54:39.026Z,0.70
2022-09-21T11:57:22.846Z,0.30
2022-09-21T12:00:15.601Z,0.30
2022-09-21T12:03:09.619Z,0.47
2022-09-21T12:06:03.383Z,0.30
2022-09-21T12:08:32.914Z,0.30
2022-09-21T12:11:21.121Z,0.32
2022-09-21T12:14:08.797Z,0.35
2022-09-21T12:17:08.896Z,0.30
2022-09-21T12:19:54.888Z,0.40
2022-09-21T12:22:26.782Z,0.30
2022-09-21T12:25:06.354Z,0.30
2022-09-21T12:27:39.346Z,0.40
2022-09-21T12:30:14.894Z,0.52
2022-09-21T12:33:00.207Z,0.50
2022-09-21T12:35:37.595Z,0.43
2022-09-21T12:38:17.964Z,0.40
2022-09-21T12:40:59.853Z,0.28
2022-09-21T12:43:55.351Z,0.30
2022-09-21T12:46:47.810Z,0.50
2022-09-21T12:49:23.673Z,0.70
2022-09-21T12:51:55.043Z,0.50
2022-09-21T12:54:37.853Z,0.38
2022-09-21T12:57:45.552Z,0.35
2022-09-21T13:00:24.233Z,0.30
2022-09-21T13:03:13.314Z,0.50
2022-09-21T13:06:06.645Z,0.40
2022-09-21T13:08:38.599Z,0.30
2022-09-21T13:11:07.799Z,0.40
2022-09-21T13:14:00.366Z,0.97
2022-09-21T13:16:34.781Z,0.50
2022-09-21T13:19:13.427Z,0.60
2022-09-21T13:21:40.534Z,0.40
2022-09-21T13:24:24.727Z,0.30
2022-09-21T13:26:55.380Z,0.40
2022-09-21T13:29:25.124Z,0.60
2022-09-21T13:31:59.342Z,0.43
2022-09-21T13:34:28.884Z,0.30
2022-09-21T13:37:23.676Z,0.32
2022-09-21T13:40:02.714Z,0.30
2022-09-21T13:42:32.220Z,0.40
2022-09-21T13:45:00.557Z,0.40
2022-09-21T13:47:34.486Z,0.50
2022-09-21T13:50:10.482Z,0.30
2022-09-21T13:52:44.480Z,0.40
2022-09-21T13:55:33.764Z,0.68
2022-09-21T13:58:04.787Z,0.43
2022-09-21T14:00:38.381Z,0.30
2022-09-21T14:03:18.852Z,0.30
2022-09-21T14:05:48.299Z,0.30
2022-09-21T14:08:14.571Z,0.57
2022-09-21T14:10:48.674Z,0.40
2022-09-21T14:13:38.168Z,0.50
2022-09-21T14:16:39.465Z,0.40
2022-09-21T14:19:26.903Z,0.30
2022-09-21T14:22:06.275Z,0.40
2022-09-21T14:24:36.716Z,0.30
2022-09-21T14:27:33.011Z,0.47
2022-09-21T14:30:34.214Z,0.40
2022-09-21T14:33:07.425Z,0.80
2022-09-21T14:35:39.239Z,0.63
2022-09-21T14:38:17.633Z,0.47
2022-09-21T14:40:49.132Z,0.38
2022-09-21T14:43:22.819Z,0.35
2022-09-21T14:45:56.820Z,0.30
2022-09-21T14:48:43.063Z,0.35
2022-09-21T14:51:38.116Z,0.30
2022-09-21T14:54:23.621Z,0.38
2022-09-21T14:57:15.552Z,0.30
2022-09-21T15:00:05.259Z,0.30
2022-09-21T15:02:35.689Z,0.40
2022-09-21T15:05:18.497Z,0.93
2022-09-21T15:08:22.485Z,0.30
2022-09-21T15:11:13.395Z,0.50
2022-09-21T15:14:03.625Z,0.40
2022-09-21T15:16:45.744Z,0.30
2022-09-21T15:19:13.111Z,0.30
2022-09-21T15:21:46.941Z,0.40
2022-09-21T15:24:19.850Z,0.50
2022-09-21T15:26:49.268Z,0.30
2022-09-21T15:29:28.586Z,0.50
2022-09-21T15:31:55.570Z,0.60
2022-09-21T15:34:23.335Z,0.30
2022-09-21T15:36:52.221Z,0.40
2022-09-21T15:39:24.094Z,0.70
2022-09-21T15:42:18.430Z,1.02
2022-09-21T15:44:50.022Z,0.50
2022-09-21T15:47:21.297Z,0.40
2022-09-21T15:49:48.051Z,0.40
2022-09-21T15:52:32.579Z,0.60
2022-09-21T15:55:02.865Z,0.55
2022-09-21T15:57:36.221Z,1.05
2022-09-21T16:00:20.160Z,0.40
2022-09-21T16:03:04.509Z,0.40
2022-09-21T16:05:34.062Z,0.50
2022-09-21T16:08:08.485Z,0.20
2022-09-21T16:10:40.171Z,0.35
2022-09-21T16:13:31.518Z,0.40
2022-09-21T16:16:03.109Z,0.40
2022-09-21T16:18:41.269Z,0.30
2022-09-21T16:21:13.936Z,0.20
2022-09-21T16:23:40.450Z,0.30
2022-09-21T16:26:06.937Z,0.90
2022-09-21T16:28:39.674Z,0.50
2022-09-21T16:31:29.838Z,0.30
2022-09-21T16:34:36.871Z,0.60
2022-09-21T16:37:27.984Z,0.40
2022-09-21T16:39:56.010Z,0.43
2022-09-21T16:42:23.978Z,0.30
2022-09-21T16:44:50.616Z,0.40
2022-09-21T16:47:25.063Z,0.32
2022-09-21T16:49:56.945Z,0.60
2022-09-21T16:52:24.428Z,0.20
2022-09-21T16:54:52.650Z,0.52
2022-09-21T16:57:19.030Z,0.27
2022-09-21T16:59:45.457Z,0.50
2022-09-21T17:02:14.470Z,0.45
2022-09-21T17:04:41.225Z,0.93
2022-09-21T17:07:10.460Z,0.52
2022-09-21T17:09:38.453Z,0.60
2022-09-21T17:12:07.793Z,0.80
2022-09-21T17:14:36.759Z,0.85
2022-09-21T17:17:24.310Z,1.02
2022-09-21T17:19:53.034Z,0.63
2022-09-21T17:22:19.645Z,5.07
2022-09-21T17:24:54.703Z,10.85
2022-09-21T17:27:23.625Z,5.38
2022-09-21T17:29:50.510Z,3.63
2022-09-21T17:32:22.320Z,3.63
2022-09-21T17:35:19.730Z,1.77
2022-09-21T17:37:46.280Z,2.10
2022-09-21T17:40:13.514Z,2.00
2022-09-21T17:42:44.429Z,1.63
2022-09-21T17:45:41.053Z,1.48
2022-09-21T17:48:20.306Z,1.43
2022-09-21T17:50:49.604Z,2.10
2022-09-21T17:53:36.958Z,2.10
2022-09-21T17:56:18.695Z,2.53
2022-09-21T17:58:51.795Z,1.50
2022-09-21T18:01:39.811Z,1.27
2022-09-21T18:04:10.464Z,1.00
2022-09-21T18:06:37.177Z,1.73
2022-09-21T18:09:04.432Z,1.33
2022-09-21T18:12:17.485Z,1.60
2022-09-21T18:14:52.939Z,1.87
2022-09-21T18:17:25.318Z,1.60
2022-09-21T18:20:20.445Z,1.98
2022-09-21T18:23:17.780Z,1.83
2022-09-21T18:25:49.095Z,2.10
2022-09-21T18:28:24.719Z,1.80
2022-09-21T18:31:30.879Z,1.83
2022-09-21T18:34:05.637Z,1.13
2022-09-21T18:36:40.913Z,1.20
2022-09-21T18:39:22.363Z,1.45
2022-09-21T18:41:57.798Z,1.47
2022-09-21T18:44:30.705Z,1.60
2022-09-21T18:47:15.515Z,1.60
2022-09-21T18:49:51.099Z,2.00
2022-09-21T18:52:35.913Z,1.75
2022-09-21T18:55:02.798Z,1.70
2022-09-21T18:57:32.286Z,2.25
2022-09-21T18:59:59.550Z,2.30
2022-09-21T19:02:26.349Z,2.13
2022-09-21T19:04:53.283Z,2.15
2022-09-21T19:07:24.146Z,1.10
2022-09-21T19:10:04.882Z,1.25
2022-09-21T19:12:43.238Z,1.27
2022-09-21T19:15:42.284Z,1.10
2022-09-21T19:18:19.545Z,1.67
2022-09-21T19:21:15.629Z,0.60
2022-09-21T19:24:17.271Z,0.68
2022-09-21T19:27:03.529Z,1.10
2022-09-21T19:29:57.612Z,0.77
2022-09-21T19:32:39.664Z,1.02
2022-09-21T19:35:30.612Z,1.10
2022-09-21T19:37:59.619Z,1.73
2022-09-21T19:40:32.655Z,2.47
2022-09-21T19:43:29.835Z,1.23
2022-09-21T19:46:34.023Z,1.10
2022-09-21T19:49:13.149Z,1.20
2022-09-21T19:51:47.532Z,2.00
2022-09-21T19:54:37.635Z,1.80
2022-09-21T19:57:38.485Z,2.00
2022-09-21T20:00:08.323Z,2.17
2022-09-21T20:03:34.199Z,2.07
2022-09-21T20:06:17.789Z,2.13
2022-09-21T20:08:48.915Z,1.67
2022-09-21T20:11:19.547Z,1.77
2022-09-21T20:14:29.756Z,1.45
2022-09-21T20:17:02.090Z,1.50
2022-09-21T20:19:44.382Z,2.50
2022-09-21T20:22:17.263Z,1.90
2022-09-21T20:24:49.259Z,2.53
2022-09-21T20:27:35.559Z,2.20
2022-09-21T20:30:04.557Z,1.90
2022-09-21T20:32:31.370Z,2.60
2022-09-21T20:34:57.724Z,2.30
2022-09-21T20:37:27.160Z,2.20
2022-09-21T20:39:53.890Z,2.92
2022-09-21T20:42:23.454Z,2.03
2022-09-21T20:44:53.843Z,2.42
2022-09-21T20:47:20.579Z,2.35
2022-09-21T20:49:48.057Z,2.15
2022-09-21T20:52:16.824Z,1.88
2022-09-21T20:54:49.086Z,2.40
2022-09-21T20:57:20.225Z,1.95
2022-09-21T20:59:46.781Z,2.45
2022-09-21T21:02:15.082Z,1.65
2022-09-21T21:04:41.578Z,1.52
2022-09-21T21:07:08.330Z,1.20
2022-09-21T21:09:34.681Z,1.23
2022-09-21T21:12:01.268Z,2.28
2022-09-21T21:14:27.608Z,1.77
2022-09-21T21:16:54.109Z,1.88
2022-09-21T21:19:20.942Z,1.73
2022-09-21T21:21:47.312Z,1.95
2022-09-21T21:24:32.266Z,1.50
2022-09-21T21:27:02.237Z,1.05
2022-09-21T21:29:30.161Z,0.95
2022-09-21T21:31:56.571Z,0.50
2022-09-21T21:34:23.175Z,0.60
2022-09-21T21:36:49.555Z,1.50
2022-09-21T21:39:16.043Z,1.52
2022-09-21T21:41:43.509Z,2.42
2022-09-21T21:44:11.401Z,1.80
2022-09-21T21:46:37.907Z,1.90
2022-09-21T21:49:04.388Z,1.75
2022-09-21T21:51:31.087Z,1.67
2022-09-21T21:53:57.416Z,1.30
2022-09-21T21:56:23.909Z,1.00
2022-09-21T21:58:54.344Z,1.00
2022-09-21T22:01:29.208Z,1.45
2022-09-21T22:03:58.511Z,1.25
2022-09-21T22:06:25.931Z,1.88
2022-09-21T22:08:53.909Z,1.37
2022-09-21T22:11:21.617Z,1.60
2022-09-21T22:13:48.675Z,1.58
2022-09-21T22:16:18.855Z,1.70
2022-09-21T22:18:46.491Z,1.33
2022-09-21T22:21:15.479Z,1.10
2022-09-21T22:23:42.021Z,0.85
2022-09-21T22:26:11.132Z,0.80
2022-09-21T22:28:43.047Z,0.68
2022-09-21T22:31:12.482Z,0.80
2022-09-21T22:33:39.475Z,0.50
2022-09-21T22:36:13.642Z,0.50
2022-09-21T22:38:43.018Z,0.30
2022-09-21T22:41:13.487Z,0.77
2022-09-21T22:43:40.521Z,0.60
2022-09-21T22:46:07.503Z,0.73
2022-09-21T22:48:34.267Z,0.82
2022-09-21T22:51:01.182Z,0.80
2022-09-21T22:53:27.831Z,1.38
2022-09-21T22:56:06.246Z,0.90
2022-09-21T22:58:33.758Z,0.80
2022-09-21T23:01:13.330Z,0.60
2022-09-21T23:03:41.695Z,0.93
2022-09-21T23:06:10.302Z,0.40
2022-09-21T23:08:36.841Z,0.60
2022-09-21T23:11:10.311Z,0.60
2022-09-21T23:13:36.710Z,0.60
2022-09-21T23:16:07.609Z,0.93
2022-09-21T23:18:34.999Z,0.70
2022-09-21T23:21:05.237Z,0.68
2022-09-21T23:23:32.969Z,0.50
2022-09-21T23:26:02.497Z,0.60
2022-09-21T23:28:29.075Z,0.30
2022-09-21T23:30:57.109Z,0.30
2022-09-21T23:33:23.551Z,0.50
2022-09-21T23:35:51.220Z,0.40
2022-09-21T23:38:17.754Z,0.57
2022-09-21T23:40:44.141Z,0.35
2022-09-21T23:43:10.488Z,0.40
2022-09-21T23:45:36.892Z,0.40
2022-09-21T23:48:03.288Z,0.30
2022-09-21T23:50:29.621Z,0.40
2022-09-21T23:52:55.960Z,0.25
2022-09-21T23:55:22.291Z,0.38
2022-09-21T23:57:50.482Z,0.50
